createdAt,value
2018-12-12T00:00:00.897Z,11.03
2018-12-12T00:02:30.140Z,5.00
2018-12-12T00:04:59.324Z,5.90
2018-12-12T00:07:28.680Z,6.13
2018-12-12T00:09:57.858Z,5.03
2018-12-12T00:12:27.000Z,4.63
2018-12-12T00:14:56.219Z,5.13
2018-12-12T00:17:25.333Z,4.80
2018-12-12T00:19:54.528Z,5.80
2018-12-12T00:22:23.670Z,9.47
2018-12-12T00:24:52.833Z,7.40
2018-12-12T00:27:22.004Z,9.37
2018-12-12T00:29:51.191Z,5.20
2018-12-12T00:32:20.295Z,9.00
2018-12-12T00:34:49.434Z,4.80
2018-12-12T00:37:18.624Z,6.73
2018-12-12T00:39:47.853Z,4.70
2018-12-12T00:42:17.863Z,5.00
2018-12-12T00:44:47.313Z,5.40
2018-12-12T00:47:16.627Z,5.47
2018-12-12T00:49:45.815Z,8.43
2018-12-12T00:52:14.972Z,6.63
2018-12-12T00:54:44.508Z,12.80
2018-12-12T00:57:13.663Z,5.83
2018-12-12T00:59:43.146Z,5.50
2018-12-12T01:02:12.500Z,5.87
2018-12-12T01:04:41.668Z,7.03
2018-12-12T01:07:10.840Z,9.67
2018-12-12T01:09:40.020Z,6.53
2018-12-12T01:12:12.612Z,8.77
2018-12-12T01:14:41.882Z,7.67
2018-12-12T01:17:11.035Z,6.80
2018-12-12T01:19:40.202Z,5.77
2018-12-12T01:22:09.401Z,7.27
2018-12-12T01:24:38.583Z,7.13
2018-12-12T01:27:07.728Z,8.53
2018-12-12T01:29:36.920Z,11.20
2018-12-12T01:32:06.165Z,8.33
2018-12-12T01:34:35.459Z,8.87
2018-12-12T01:37:04.731Z,9.97
2018-12-12T01:39:33.939Z,12.80
2018-12-12T01:42:03.164Z,6.53
2018-12-12T01:44:32.317Z,12.20
2018-12-12T01:47:01.524Z,9.30
2018-12-12T01:49:30.643Z,7.53
2018-12-12T01:51:59.836Z,11.53
2018-12-12T01:54:29.028Z,7.50
2018-12-12T01:56:58.199Z,10.03
2018-12-12T01:59:27.372Z,6.27
2018-12-12T02:01:56.516Z,6.90
2018-12-12T02:04:25.752Z,6.87
2018-12-12T02:06:54.862Z,6.83
2018-12-12T02:09:24.046Z,7.47
2018-12-12T02:11:53.255Z,9.50
2018-12-12T02:14:22.448Z,9.07
2018-12-12T02:16:51.639Z,6.70
2018-12-12T02:19:20.988Z,11.97
2018-12-12T02:21:50.223Z,6.60
2018-12-12T02:24:19.372Z,6.90
2018-12-12T02:26:48.614Z,7.23
2018-12-12T02:29:17.747Z,8.10
2018-12-12T02:31:46.962Z,7.20
2018-12-12T02:34:16.107Z,12.70
2018-12-12T02:36:45.288Z,7.87
2018-12-12T02:39:14.528Z,7.93
2018-12-12T02:41:43.666Z,7.20
2018-12-12T02:44:12.769Z,23.40
2018-12-12T02:46:41.936Z,8.10
2018-12-12T02:49:11.128Z,8.87
2018-12-12T02:51:40.348Z,8.43
2018-12-12T02:54:09.516Z,9.53
2018-12-12T02:56:38.730Z,7.20
2018-12-12T02:59:07.915Z,8.10
2018-12-12T03:01:37.134Z,7.43
2018-12-12T03:04:06.312Z,7.77
2018-12-12T03:06:35.479Z,7.03
2018-12-12T03:09:07.218Z,9.23
2018-12-12T03:11:36.403Z,8.57
2018-12-12T03:14:05.587Z,21.53
2018-12-12T03:16:34.758Z,7.53
2018-12-12T03:19:03.894Z,7.07
2018-12-12T03:21:33.059Z,12.00
2018-12-12T03:24:02.197Z,8.47
2018-12-12T03:26:31.403Z,7.67
2018-12-12T03:29:00.535Z,7.17
2018-12-12T03:31:29.699Z,7.60
2018-12-12T03:33:58.855Z,9.90
2018-12-12T03:36:28.041Z,6.93
2018-12-12T03:38:57.289Z,8.30
2018-12-12T03:41:26.542Z,6.33
2018-12-12T03:43:55.851Z,6.27
2018-12-12T03:46:25.084Z,6.83
2018-12-12T03:48:54.298Z,8.63
2018-12-12T03:51:23.470Z,6.60
2018-12-12T03:53:52.546Z,7.23
2018-12-12T03:56:21.674Z,6.07
2018-12-12T03:58:50.790Z,12.90
2018-12-12T04:01:19.963Z,6.30
2018-12-12T04:03:49.355Z,9.43
2018-12-12T04:06:18.573Z,6.10
2018-12-12T04:08:47.724Z,7.40
2018-12-12T04:11:16.952Z,7.93
2018-12-12T04:13:46.103Z,6.40
2018-12-12T04:16:15.603Z,7.57
2018-12-12T04:18:44.787Z,6.83
2018-12-12T04:21:14.077Z,7.63
2018-12-12T04:23:43.240Z,6.97
2018-12-12T04:26:12.428Z,5.93
2018-12-12T04:28:41.555Z,9.53
2018-12-12T04:31:10.732Z,6.30
2018-12-12T04:33:40.009Z,6.70
2018-12-12T04:36:09.320Z,9.93
2018-12-12T04:38:38.484Z,8.80
2018-12-12T04:41:07.691Z,7.43
2018-12-12T04:43:36.901Z,6.57
2018-12-12T04:46:06.057Z,8.40
2018-12-12T04:48:35.346Z,5.93
2018-12-12T04:51:04.580Z,6.90
2018-12-12T04:53:33.916Z,5.20
2018-12-12T04:56:02.962Z,5.93
2018-12-12T04:58:32.163Z,5.43
2018-12-12T05:01:01.398Z,10.23
2018-12-12T05:03:30.606Z,5.87
2018-12-12T05:05:59.888Z,10.07
2018-12-12T05:08:29.029Z,6.10
2018-12-12T05:10:58.300Z,6.80
2018-12-12T05:13:27.431Z,5.83
2018-12-12T05:15:56.583Z,7.07
2018-12-12T05:18:25.751Z,6.13
2018-12-12T05:20:55.079Z,6.23
2018-12-12T05:23:24.248Z,5.83
2018-12-12T05:25:53.438Z,5.70
2018-12-12T05:28:22.732Z,5.83
2018-12-12T05:30:51.978Z,5.20
2018-12-12T05:33:21.069Z,5.37
2018-12-12T05:35:50.267Z,6.70
2018-12-12T05:38:19.433Z,6.60
2018-12-12T05:40:48.791Z,6.67
2018-12-12T05:43:18.012Z,5.93
2018-12-12T05:45:47.230Z,7.23
2018-12-12T05:48:16.347Z,7.30
2018-12-12T05:50:45.565Z,7.13
2018-12-12T05:53:14.773Z,11.60
2018-12-12T05:55:43.935Z,5.70
2018-12-12T05:58:13.157Z,5.97
2018-12-12T06:00:42.384Z,9.40
2018-12-12T06:03:11.553Z,6.50
2018-12-12T06:05:40.745Z,6.70
2018-12-12T06:08:09.974Z,5.93
2018-12-12T06:10:39.175Z,8.87
2018-12-12T06:13:08.315Z,6.63
2018-12-12T06:15:37.562Z,6.30
2018-12-12T06:18:06.746Z,5.87
2018-12-12T06:20:35.947Z,6.20
2018-12-12T06:23:05.136Z,6.60
2018-12-12T06:25:34.350Z,5.60
2018-12-12T06:28:03.876Z,7.30
2018-12-12T06:30:33.031Z,5.37
2018-12-12T06:33:02.168Z,6.50
2018-12-12T06:35:31.352Z,13.37
2018-12-12T06:38:00.558Z,10.63
2018-12-12T06:40:29.748Z,6.37
2018-12-12T06:42:58.893Z,6.63
2018-12-12T06:45:28.088Z,7.77
2018-12-12T06:47:57.223Z,11.63
2018-12-12T06:50:26.525Z,19.90
2018-12-12T06:52:55.709Z,14.30
2018-12-12T06:55:24.924Z,10.80
2018-12-12T06:57:54.107Z,7.07
2018-12-12T07:00:23.315Z,7.93
2018-12-12T07:02:52.483Z,7.53
2018-12-12T07:05:21.718Z,8.00
2018-12-12T07:07:50.848Z,7.17
2018-12-12T07:10:20.032Z,6.67
2018-12-12T07:12:49.225Z,8.60
2018-12-12T07:15:18.424Z,7.83
2018-12-12T07:17:47.587Z,6.80
2018-12-12T07:20:16.790Z,6.20
2018-12-12T07:22:45.928Z,7.70
2018-12-12T07:25:15.056Z,10.30
2018-12-12T07:27:44.221Z,8.43
2018-12-12T07:30:13.406Z,7.93
2018-12-12T07:32:42.604Z,8.40
2018-12-12T07:35:11.896Z,6.63
2018-12-12T07:37:41.249Z,8.30
2018-12-12T07:40:10.448Z,8.57
2018-12-12T07:42:39.608Z,8.93
2018-12-12T07:45:08.920Z,7.57
2018-12-12T07:47:38.105Z,7.40
2018-12-12T07:50:07.759Z,10.07
2018-12-12T07:52:36.895Z,7.10
2018-12-12T07:55:06.100Z,7.50
2018-12-12T07:57:35.228Z,7.20
2018-12-12T08:00:05.312Z,8.10
2018-12-12T08:02:34.585Z,12.03
2018-12-12T08:05:04.279Z,7.97
2018-12-12T08:07:33.542Z,8.10
2018-12-12T08:10:02.735Z,8.53
2018-12-12T08:12:32.002Z,7.70
2018-12-12T08:15:01.228Z,11.70
2018-12-12T08:17:30.391Z,8.50
2018-12-12T08:19:59.508Z,9.20
2018-12-12T08:22:28.709Z,7.67
2018-12-12T08:24:57.896Z,8.47
2018-12-12T08:27:27.180Z,8.10
2018-12-12T08:29:56.359Z,10.03
2018-12-12T08:32:25.565Z,9.13
2018-12-12T08:34:54.678Z,10.13
2018-12-12T08:37:23.877Z,9.27
2018-12-12T08:39:53.020Z,6.73
2018-12-12T08:42:22.335Z,7.50
2018-12-12T08:44:51.503Z,10.33
2018-12-12T08:47:20.742Z,9.50
2018-12-12T08:49:49.960Z,6.30
2018-12-12T08:52:19.288Z,6.87
2018-12-12T08:54:48.508Z,6.60
2018-12-12T08:57:18.359Z,5.80
2018-12-12T08:59:47.481Z,7.23
2018-12-12T09:02:16.685Z,6.80
2018-12-12T09:04:45.849Z,7.60
2018-12-12T09:07:15.089Z,11.30
2018-12-12T09:09:44.342Z,7.70
2018-12-12T09:12:13.503Z,10.67
2018-12-12T09:14:42.737Z,10.33
2018-12-12T09:17:11.886Z,7.10
2018-12-12T09:19:41.031Z,8.10
2018-12-12T09:22:10.229Z,7.80
2018-12-12T09:24:39.459Z,7.10
2018-12-12T09:27:08.637Z,10.43
2018-12-12T09:29:37.743Z,8.50
2018-12-12T09:32:06.964Z,7.40
2018-12-12T09:34:36.173Z,6.90
2018-12-12T09:37:05.411Z,7.80
2018-12-12T09:39:34.608Z,6.47
2018-12-12T09:42:03.820Z,7.23
2018-12-12T09:44:33.074Z,7.00
2018-12-12T09:47:02.531Z,10.00
2018-12-12T09:49:31.698Z,9.10
2018-12-12T09:52:00.915Z,8.30
2018-12-12T09:54:30.056Z,8.43
2018-12-12T09:56:59.275Z,8.67
2018-12-12T09:59:28.391Z,7.77
2018-12-12T10:01:57.544Z,9.53
2018-12-12T10:04:26.728Z,9.17
2018-12-12T10:06:55.816Z,7.33
2018-12-12T10:09:25.217Z,6.97
2018-12-12T10:11:54.636Z,7.73
2018-12-12T10:14:23.819Z,8.17
2018-12-12T10:16:53.040Z,6.90
2018-12-12T10:19:22.234Z,7.13
2018-12-12T10:21:51.776Z,6.83
2018-12-12T10:24:21.376Z,11.37
2018-12-12T10:26:50.520Z,10.10
2018-12-12T10:29:19.958Z,9.00
2018-12-12T10:31:49.144Z,11.77
2018-12-12T10:34:18.362Z,7.70
2018-12-12T10:36:47.517Z,7.03
2018-12-12T10:39:16.640Z,6.70
2018-12-12T10:41:46.001Z,12.70
2018-12-12T10:44:15.132Z,6.60
2018-12-12T10:46:44.412Z,6.67
2018-12-12T10:49:13.677Z,10.33
2018-12-12T10:51:42.936Z,7.53
2018-12-12T10:54:12.079Z,6.80
2018-12-12T10:56:41.222Z,7.57
2018-12-12T10:59:10.437Z,9.17
2018-12-12T11:01:44.977Z,8.57
2018-12-12T11:04:14.126Z,7.73
2018-12-12T11:06:43.356Z,9.90
2018-12-12T11:09:12.520Z,12.10
2018-12-12T11:11:41.704Z,10.57
2018-12-12T11:14:10.943Z,6.67
2018-12-12T11:16:40.122Z,6.33
2018-12-12T11:19:09.330Z,6.20
2018-12-12T11:21:38.453Z,6.27
2018-12-12T11:24:07.581Z,6.70
2018-12-12T11:26:36.792Z,7.90
2018-12-12T11:29:05.987Z,8.80
2018-12-12T11:31:35.493Z,5.60
2018-12-12T11:34:04.632Z,6.07
2018-12-12T11:36:33.804Z,6.43
2018-12-12T11:39:03.200Z,5.27
2018-12-12T11:41:32.346Z,6.17
2018-12-12T11:44:01.413Z,8.23
2018-12-12T11:46:30.595Z,6.20
2018-12-12T11:48:59.741Z,5.47
2018-12-12T11:51:28.979Z,7.50
2018-12-12T11:53:58.124Z,6.40
2018-12-12T11:56:27.339Z,6.30
2018-12-12T11:58:56.502Z,8.10
2018-12-12T12:01:25.665Z,6.67
2018-12-12T12:03:56.846Z,11.70
2018-12-12T12:06:26.119Z,6.67
2018-12-12T12:08:55.286Z,6.43
2018-12-12T12:11:24.436Z,8.53
2018-12-12T12:13:53.656Z,7.53
2018-12-12T12:16:22.896Z,6.63
2018-12-12T12:18:52.100Z,7.40
2018-12-12T12:21:21.306Z,8.40
2018-12-12T12:23:50.504Z,7.93
2018-12-12T12:26:19.787Z,8.97
2018-12-12T12:28:49.007Z,8.70
2018-12-12T12:31:19.568Z,9.80
2018-12-12T12:33:48.719Z,10.17
2018-12-12T12:36:17.954Z,8.23
2018-12-12T12:38:47.130Z,8.70
2018-12-12T12:41:16.195Z,9.30
2018-12-12T12:43:45.313Z,8.67
2018-12-12T12:46:14.415Z,11.60
2018-12-12T12:48:50.064Z,9.37
2018-12-12T12:51:19.293Z,8.43
2018-12-12T12:53:48.387Z,8.13
2018-12-12T12:56:17.560Z,9.33
2018-12-12T12:58:46.695Z,9.73
2018-12-12T13:01:16.032Z,9.30
2018-12-12T13:03:45.183Z,7.83
2018-12-12T13:06:14.386Z,11.83
2018-12-12T13:08:43.568Z,9.40
2018-12-12T13:11:14.956Z,10.00
2018-12-12T13:13:43.900Z,8.20
2018-12-12T13:16:13.078Z,14.10
2018-12-12T13:18:42.150Z,8.33
2018-12-12T13:21:11.326Z,7.63
2018-12-12T13:23:47.177Z,9.37
2018-12-12T13:26:16.383Z,8.73
2018-12-12T13:28:45.580Z,8.47
2018-12-12T13:31:14.684Z,8.63
2018-12-12T13:33:43.886Z,7.03
2018-12-12T13:36:13.043Z,9.00
2018-12-12T13:38:42.300Z,7.37
2018-12-12T13:41:11.513Z,7.37
2018-12-12T13:43:40.747Z,6.83
2018-12-12T13:46:09.984Z,7.53
2018-12-12T13:48:39.208Z,8.40
2018-12-12T13:51:08.392Z,6.90
2018-12-12T13:53:37.546Z,11.43
2018-12-12T13:56:06.774Z,7.50
2018-12-12T13:58:35.971Z,7.13
2018-12-12T14:01:05.143Z,9.87
2018-12-12T14:03:34.449Z,8.33
2018-12-12T14:06:03.758Z,11.07
2018-12-12T14:08:33.003Z,7.90
2018-12-12T14:11:02.203Z,7.53
2018-12-12T14:13:31.416Z,12.60
2018-12-12T14:16:00.561Z,7.53
2018-12-12T14:18:29.882Z,11.00
2018-12-12T14:20:59.015Z,14.23
2018-12-12T14:23:28.195Z,8.60
2018-12-12T14:25:57.314Z,10.93
2018-12-12T14:28:26.516Z,7.77
2018-12-12T14:30:55.756Z,9.37
2018-12-12T14:33:24.919Z,8.00
2018-12-12T14:35:54.148Z,9.57
2018-12-12T14:38:23.322Z,9.50
2018-12-12T14:40:52.506Z,7.73
2018-12-12T14:43:21.720Z,9.47
2018-12-12T14:45:50.912Z,14.17
2018-12-12T14:48:20.084Z,9.93
2018-12-12T14:50:49.257Z,9.93
2018-12-12T14:53:18.432Z,9.10
2018-12-12T14:55:47.593Z,10.50
2018-12-12T14:58:16.840Z,12.53
2018-12-12T15:00:46.039Z,9.43
2018-12-12T15:03:15.282Z,7.90
2018-12-12T15:05:44.547Z,7.93
2018-12-12T15:08:13.673Z,12.00
2018-12-12T15:10:42.924Z,4.90
2018-12-12T15:13:12.080Z,4.67
2018-12-12T15:15:41.268Z,4.03
2018-12-12T15:18:10.465Z,5.13
2018-12-12T15:20:39.718Z,4.20
2018-12-12T15:23:08.955Z,5.30
2018-12-12T15:25:38.206Z,5.60
2018-12-12T15:28:07.401Z,4.60
2018-12-12T15:30:36.609Z,4.50
2018-12-12T15:33:05.853Z,10.33
2018-12-12T15:35:35.091Z,6.00
2018-12-12T15:38:04.360Z,4.27
2018-12-12T15:40:33.654Z,3.47
2018-12-12T15:43:02.914Z,3.90
2018-12-12T15:45:32.448Z,2.73
2018-12-12T15:48:01.638Z,2.10
2018-12-12T15:50:31.870Z,2.30
2018-12-12T15:53:01.291Z,2.40
2018-12-12T15:55:30.445Z,2.20
2018-12-12T15:57:59.620Z,1.57
2018-12-12T16:00:29.308Z,1.83
2018-12-12T16:02:58.728Z,2.23
2018-12-12T16:05:27.985Z,2.80
2018-12-12T16:07:57.198Z,2.40
2018-12-12T16:10:26.516Z,3.20
2018-12-12T16:12:55.687Z,4.03
2018-12-12T16:15:24.865Z,3.70
2018-12-12T16:17:54.146Z,3.50
2018-12-12T16:20:23.361Z,2.80
2018-12-12T16:22:52.459Z,4.30
2018-12-12T16:25:21.669Z,6.70
2018-12-12T16:27:52.275Z,6.97
2018-12-12T16:30:21.609Z,3.97
2018-12-12T16:32:50.849Z,3.73
2018-12-12T16:35:20.023Z,2.97
2018-12-12T16:37:49.233Z,7.27
2018-12-12T16:40:18.496Z,4.20
2018-12-12T16:42:47.832Z,3.30
2018-12-12T16:45:17.052Z,4.87
2018-12-12T16:47:46.216Z,4.03
2018-12-12T16:50:15.427Z,6.60
2018-12-12T16:52:44.628Z,4.60
2018-12-12T16:55:13.888Z,4.83
2018-12-12T16:57:43.100Z,4.30
2018-12-12T17:00:12.392Z,4.83
2018-12-12T17:02:41.612Z,4.87
2018-12-12T17:05:10.989Z,5.20
2018-12-12T17:07:40.270Z,4.70
2018-12-12T17:10:10.796Z,5.50
2018-12-12T17:12:40.377Z,4.80
2018-12-12T17:15:09.744Z,9.13
2018-12-12T17:17:38.958Z,14.17
2018-12-12T17:20:08.869Z,8.53
2018-12-12T17:22:37.971Z,8.40
2018-12-12T17:25:07.303Z,6.20
2018-12-12T17:27:36.668Z,6.53
2018-12-12T17:30:07.848Z,6.90
2018-12-12T17:32:37.120Z,13.00
2018-12-12T17:35:08.938Z,25.23
2018-12-12T17:37:38.782Z,7.50
2018-12-12T17:40:08.035Z,13.33
2018-12-12T17:42:37.325Z,26.00
2018-12-12T17:45:06.673Z,8.00
2018-12-12T17:47:35.903Z,6.10
2018-12-12T17:50:05.965Z,7.40
2018-12-12T17:52:35.202Z,6.50
2018-12-12T17:55:04.512Z,7.93
2018-12-12T17:57:33.711Z,9.27
2018-12-12T18:00:03.360Z,8.70
2018-12-12T18:02:32.589Z,9.57
2018-12-12T18:05:01.884Z,8.60
2018-12-12T18:07:31.301Z,8.93
2018-12-12T18:10:00.501Z,15.00
2018-12-12T18:12:29.844Z,11.13
2018-12-12T18:14:59.068Z,11.60
2018-12-12T18:17:28.368Z,14.03
2018-12-12T18:19:57.624Z,19.43
2018-12-12T18:22:27.080Z,15.50
2018-12-12T18:24:56.260Z,16.60
2018-12-12T18:27:25.553Z,14.70
2018-12-12T18:29:54.684Z,17.03
2018-12-12T18:32:23.804Z,19.90
2018-12-12T18:34:53.086Z,20.90
2018-12-12T18:37:22.353Z,21.63
2018-12-12T18:39:51.627Z,22.63
2018-12-12T18:42:21.224Z,24.10
2018-12-12T18:44:50.436Z,20.80
2018-12-12T18:47:19.629Z,24.53
2018-12-12T18:49:48.867Z,24.57
2018-12-12T18:52:18.126Z,23.50
2018-12-12T18:54:48.242Z,23.00
2018-12-12T18:57:17.541Z,23.50
2018-12-12T18:59:46.763Z,25.40
2018-12-12T19:02:15.997Z,26.27
2018-12-12T19:04:45.202Z,21.17
2018-12-12T19:07:14.343Z,23.43
2018-12-12T19:09:43.555Z,29.27
2018-12-12T19:12:12.771Z,24.10
2018-12-12T19:15:12.795Z,22.90
2018-12-12T19:17:42.016Z,26.80
2018-12-12T19:20:11.298Z,29.80
2018-12-12T19:22:40.483Z,25.67
2018-12-12T19:25:09.978Z,27.07
2018-12-12T19:27:39.169Z,27.23
2018-12-12T19:30:09.403Z,26.80
2018-12-12T19:32:38.657Z,26.77
2018-12-12T19:35:09.905Z,24.50
2018-12-12T19:37:39.299Z,24.63
2018-12-12T19:40:09.272Z,19.97
2018-12-12T19:42:38.520Z,35.73
2018-12-12T19:45:08.775Z,29.20
2018-12-12T19:47:38.539Z,21.40
2018-12-12T19:50:08.736Z,24.17
2018-12-12T19:52:38.227Z,24.93
2018-12-12T19:55:07.526Z,24.03
2018-12-12T19:57:36.757Z,24.20
2018-12-12T20:00:07.036Z,24.93
2018-12-12T20:02:36.426Z,37.60
2018-12-12T20:05:06.313Z,48.33
2018-12-12T20:07:35.481Z,36.47
2018-12-12T20:10:04.976Z,37.27
2018-12-12T20:12:34.154Z,51.83
2018-12-12T20:15:03.346Z,58.53
2018-12-12T20:17:33.557Z,32.03
2018-12-12T20:20:02.979Z,37.17
2018-12-12T20:22:32.135Z,37.73
2018-12-12T20:25:01.333Z,28.90
2018-12-12T20:27:30.516Z,29.70
2018-12-12T20:29:59.651Z,32.97
2018-12-12T20:32:29.029Z,31.33
2018-12-12T20:34:58.220Z,32.97
2018-12-12T20:37:27.489Z,29.07
2018-12-12T20:39:56.672Z,32.87
2018-12-12T20:42:25.892Z,33.60
2018-12-12T20:44:55.089Z,31.47
2018-12-12T20:47:24.292Z,26.23
2018-12-12T20:49:53.492Z,28.53
2018-12-12T20:52:22.639Z,29.43
2018-12-12T20:54:51.875Z,26.67
2018-12-12T20:57:21.145Z,33.27
2018-12-12T20:59:50.415Z,37.90
2018-12-12T21:02:19.752Z,40.37
2018-12-12T21:04:48.961Z,22.40
2018-12-12T21:07:18.173Z,27.40
2018-12-12T21:09:47.476Z,32.30
2018-12-12T21:12:16.751Z,25.93
2018-12-12T21:14:45.920Z,28.30
2018-12-12T21:17:15.238Z,31.17
2018-12-12T21:19:44.413Z,27.97
2018-12-12T21:22:13.604Z,32.17
2018-12-12T21:24:42.773Z,25.30
2018-12-12T21:27:12.033Z,26.97
2018-12-12T21:29:41.199Z,32.93
2018-12-12T21:32:10.427Z,30.10
2018-12-12T21:34:39.626Z,26.93
2018-12-12T21:37:08.848Z,29.30
2018-12-12T21:39:38.052Z,27.57
2018-12-12T21:42:07.244Z,29.67
2018-12-12T21:44:36.576Z,34.43
2018-12-12T21:47:05.818Z,31.30
2018-12-12T21:49:35.154Z,29.47
2018-12-12T21:52:04.433Z,32.50
2018-12-12T21:54:33.644Z,30.73
2018-12-12T21:57:02.836Z,32.10
2018-12-12T21:59:32.064Z,30.53
2018-12-12T22:02:01.401Z,37.33
2018-12-12T22:04:37.060Z,36.73
2018-12-12T22:07:01.884Z,32.20
2018-12-12T22:09:31.184Z,35.97
2018-12-12T22:12:00.295Z,41.23
2018-12-12T22:14:29.461Z,36.10
2018-12-12T22:16:58.715Z,33.17
2018-12-12T22:19:27.896Z,43.40
2018-12-12T22:21:57.104Z,40.40
2018-12-12T22:24:26.381Z,36.77
2018-12-12T22:26:55.604Z,39.37
2018-12-12T22:29:24.829Z,38.10
2018-12-12T22:31:54.204Z,40.27
2018-12-12T22:34:23.407Z,40.57
2018-12-12T22:36:52.584Z,37.20
2018-12-12T22:39:21.761Z,42.17
2018-12-12T22:41:50.895Z,35.20
2018-12-12T22:44:20.092Z,35.80
2018-12-12T22:46:49.374Z,35.23
2018-12-12T22:49:18.571Z,43.60
2018-12-12T22:51:47.759Z,38.73
2018-12-12T22:54:16.980Z,39.67
2018-12-12T22:56:46.236Z,39.33
2018-12-12T22:59:15.427Z,40.40
2018-12-12T23:01:44.705Z,37.33
2018-12-12T23:04:13.795Z,38.87
2018-12-12T23:06:42.957Z,39.13
2018-12-12T23:09:12.404Z,39.77
2018-12-12T23:11:41.581Z,39.47
2018-12-12T23:14:10.761Z,38.40
2018-12-12T23:16:40.022Z,41.70
2018-12-12T23:19:09.215Z,33.73
2018-12-12T23:21:38.452Z,36.40
2018-12-12T23:24:07.664Z,38.23
2018-12-12T23:26:37.082Z,41.83
2018-12-12T23:29:06.346Z,39.77
2018-12-12T23:31:35.576Z,41.03
2018-12-12T23:34:04.772Z,39.27
2018-12-12T23:36:33.938Z,36.73
2018-12-12T23:39:03.792Z,43.17
2018-12-12T23:41:33.006Z,36.07
2018-12-12T23:44:02.165Z,36.53
2018-12-12T23:46:31.358Z,32.63
2018-12-12T23:49:00.582Z,32.57
2018-12-12T23:51:29.732Z,37.13
2018-12-12T23:53:58.922Z,35.83
2018-12-12T23:56:28.060Z,34.57
2018-12-12T23:58:57.295Z,33.23
